01:39 Rennrad Moetz - Oetztaler Hoehe - Apfelstrasse - Sagl innen - Moetz
Ort Moetz Datum 10.04.2016 10:50:21
Kategorie Rennrad
Distanz 50,63 Kilometer Steigung 188,0 Meter Gefälle -184,0 Meter
Gesamt Zeit 01:38:31 Aktiv 01:38:31 Pause 00:00:00
Durchs. Tempo 30,8 km/h Tempo max. 46,5 km/h Tempo min. 17,3 km/h
Kalorien 0 Durchs. HF 123 BPM HF max. 157 BPM
Wetter 10 °C PartClouds Min/Max: 8,5 °C/11,2 °C; Druck: 1012,3 mbar; Rel. Feuchte: 77,9%; Taupunkt: 5,4 °C; Windgeschwindigkeit: 2,0 km/h; Niederschlag: 0,0mm
Ausrüstung Bontrager - RXL Road
Continental - Grand Prix 4000 S II 25-622
Poison - Rennrad
Shimano - HG CN-7901 Dura Ace
Notiz Moetz - Oetztaler Hoehe - Apfelstrasse - Sagl innen - Moetz ... trocken, eher frisch, leicht windig, locker (2,4) ... garmin connect
Splits
Distanz (km) Gesamt Zeit Split Zeit Split Tempo Split Tempo Höhenprofil (m)
1,00 00:02:15 00:02:15 00:02:16 26,5 -9,97
2,00 00:04:16 00:02:00 00:02:01 29,8 1,96
3,00 00:06:11 00:01:54 00:01:55 31,3 7,88
4,00 00:08:08 00:01:56 00:01:57 30,9 9,32
5,00 00:10:16 00:02:08 00:02:08 28,1 5,57
6,00 00:12:09 00:01:52 00:01:53 31,9 5,87
7,00 00:14:03 00:01:54 00:01:54 31,5 1,28
8,00 00:15:55 00:01:52 00:01:52 32,0 7,11
9,00 00:17:48 00:01:52 00:01:53 32,0 3,15
10,00 00:19:55 00:02:07 00:02:07 28,3 17,12
11,00 00:22:31 00:02:36 00:02:36 23,0 21,10
12,00 00:24:01 00:01:29 00:01:30 40,1 -30,08
13,00 00:25:51 00:01:49 00:01:50 32,8 -9,38
14,00 00:27:41 00:01:50 00:01:50 32,7 -4,80
15,00 00:29:30 00:01:48 00:01:49 33,1 -9,91
16,00 00:31:25 00:01:54 00:01:55 31,4 -3,63
17,00 00:33:22 00:01:57 00:01:57 30,7 -3,75
18,00 00:35:18 00:01:56 00:01:56 31,0 -2,35
19,00 00:37:14 00:01:56 00:01:56 31,0 1,30
20,00 00:39:10 00:01:55 00:01:56 31,1 -8,30
21,00 00:41:04 00:01:54 00:01:54 31,5 -5,91
22,00 00:43:06 00:02:01 00:02:01 29,7 1,50
23,00 00:45:00 00:01:54 00:01:55 31,4 -4,84
24,00 00:46:52 00:01:51 00:01:52 32,3 -0,03
25,00 00:48:43 00:01:51 00:01:51 32,4 -0,37
26,00 00:50:37 00:01:53 00:01:54 31,6 -4,05
27,00 00:52:30 00:01:52 00:01:53 32,0 0,05
28,00 00:54:20 00:01:50 00:01:51 32,6 0,25
29,00 00:56:17 00:01:56 00:01:57 30,9 -1,12
30,00 00:58:04 00:01:46 00:01:47 33,7 -7,39
31,00 00:59:56 00:01:52 00:01:52 32,1 -2,77
32,00 01:01:51 00:01:55 00:01:55 31,3 0,83
33,00 01:03:53 00:02:02 00:02:02 29,5 0,50
34,00 01:05:40 00:01:46 00:01:47 33,7 -6,58
35,00 01:07:24 00:01:43 00:01:44 34,7 -0,37
36,00 01:09:29 00:02:05 00:02:06 28,7 13,17
37,00 01:11:24 00:01:54 00:01:54 31,4 -6,20
38,00 01:13:07 00:01:43 00:01:43 34,9 -7,26
39,00 01:15:04 00:01:56 00:01:57 30,8 1,41
40,00 01:17:08 00:02:04 00:02:05 28,9 3,98
41,00 01:19:13 00:02:04 00:02:04 29,0 -0,71
42,00 01:21:16 00:02:03 00:02:03 29,2 2,28
43,00 01:23:16 00:02:00 00:02:00 29,9 2,41
44,00 01:25:23 00:02:07 00:02:07 28,3 6,72
45,00 01:27:14 00:01:50 00:01:50 32,6 1,66
46,00 01:29:09 00:01:55 00:01:55 31,3 -2,14
47,00 01:31:06 00:01:57 00:01:57 30,7 1,75
48,00 01:33:08 00:02:01 00:02:02 29,5 3,96
49,00 01:35:06 00:01:57 00:01:58 30,6 0,03
50,00 01:36:59 00:01:53 00:01:54 31,7 -0,31
50,72 01:38:31 00:01:31 00:02:06 28,5 10,02